Time;durP1;ratioP1;P1;durP2;ratioP2;P2;SDS_P1;SDS_P2;PMS_P1;PMS_P2;Temp;Humidity;BMP_temperature;BMP_pressure;BME280_temperature;BME280_humidity;BME280_pressure;Samples;Min_cycle;Max_cycle;Signal;HPM_P1;HPM_P2
2022/03/25 00:00:16;;;;;;;26.73;19.00;;;;;;;9.60;46.50;100847.91;1088079;54;20030;-82
2022/03/25 00:01:18;;;;;;;26.35;19.13;;;;;;;9.65;46.38;100851.91;1088058;54;20026;-81
2022/03/25 00:02:22;;;;;;;25.42;17.60;;;;;;;9.64;46.37;100849.34;1088176;54;20022;-82
2022/03/25 00:03:23;;;;;;;21.15;16.63;;;;;;;9.76;45.96;100847.56;1088174;54;20030;-87
2022/03/25 00:04:28;;;;;;;23.77;17.00;;;;;;;9.79;45.75;100845.50;1088240;54;20035;-83
2022/03/25 00:05:29;;;;;;;20.95;15.45;;;;;;;9.82;45.95;100844.41;1088177;54;20046;-83
2022/03/25 00:06:34;;;;;;;22.40;15.98;;;;;;;9.88;45.93;100848.41;1088309;54;20041;-82
2022/03/25 00:07:38;;;;;;;20.17;15.48;;;;;;;9.87;46.18;100854.72;1090768;46;20050;-84
2022/03/25 00:08:42;;;;;;;21.15;16.08;;;;;;;9.81;46.02;100856.91;1087853;54;20050;-81
2022/03/25 00:09:44;;;;;;;23.48;17.23;;;;;;;9.67;46.42;100849.13;1087182;54;20603;-80
2022/03/25 00:10:48;;;;;;;24.73;17.90;;;;;;;9.56;47.08;100846.44;1087317;54;20038;-81
2022/03/25 00:11:50;;;;;;;24.55;18.42;;;;;;;9.49;47.19;100851.41;1087362;54;20039;-82
2022/03/25 00:12:54;;;;;;;24.10;18.25;;;;;;;9.43;47.72;100852.72;1088144;39;20480;-80
2022/03/25 00:13:56;;;;;;;24.80;17.60;;;;;;;9.35;47.70;100855.13;1087440;54;20026;-82
2022/03/25 00:15:00;;;;;;;25.58;18.17;;;;;;;9.34;47.93;100851.59;1087365;54;20049;-79
2022/03/25 00:16:03;;;;;;;22.98;17.05;;;;;;;9.29;48.17;100845.78;1087124;54;20039;-80
2022/03/25 00:17:08;;;;;;;23.83;18.60;;;;;;;9.30;48.10;100854.63;1086725;54;20073;-81
2022/03/25 00:18:09;;;;;;;24.23;17.27;;;;;;;9.38;47.82;100852.22;1086245;54;20042;-79
2022/03/25 00:19:14;;;;;;;22.95;16.77;;;;;;;9.41;47.67;100853.78;1086305;54;20035;-80
2022/03/25 00:20:15;;;;;;;22.20;16.45;;;;;;;9.45;47.88;100850.78;1086339;54;20046;-78
2022/03/25 00:21:19;;;;;;;23.27;16.77;;;;;;;9.46;48.25;100854.31;1086274;54;20026;-82
2022/03/25 00:22:21;;;;;;;22.73;16.67;;;;;;;9.44;48.24;100853.56;1086431;54;20049;-80
2022/03/25 00:23:28;;;;;;;22.58;16.33;;;;;;;9.47;47.93;100856.00;1086145;54;20030;-78
2022/03/25 00:24:29;;;;;;;24.23;17.02;;;;;;;9.46;48.04;100849.81;1086221;54;20038;-81
2022/03/25 00:25:34;;;;;;;23.15;15.98;;;;;;;9.38;47.78;100854.06;1086182;46;20042;-78
2022/03/25 00:26:35;;;;;;;26.65;18.42;;;;;;;9.20;48.88;100851.81;1085886;54;20068;-81
2022/03/25 00:27:40;;;;;;;23.15;16.88;;;;;;;9.24;48.57;100863.94;1086320;54;20157;-81
2022/03/25 00:28:41;;;;;;;21.65;15.20;;;;;;;9.24;48.88;100857.78;1086090;54;20849;-81
2022/03/25 00:29:45;;;;;;;23.15;16.05;;;;;;;9.29;48.56;100856.47;1086598;47;20050;-81
2022/03/25 00:30:47;;;;;;;25.45;16.35;;;;;;;9.33;48.28;100862.41;1087165;54;20026;-82
2022/03/25 00:31:51;;;;;;;21.25;15.25;;;;;;;9.36;48.43;100860.34;1087283;47;20098;-78
2022/03/25 00:32:54;;;;;;;17.42;13.77;;;;;;;9.42;48.19;100863.50;1087441;47;20030;-81
2022/03/25 00:33:58;;;;;;;19.95;15.05;;;;;;;9.42;48.25;100851.03;1086475;54;20038;-80
2022/03/25 00:35:00;;;;;;;19.52;15.02;;;;;;;9.39;48.28;100856.59;1086508;54;20046;-79
2022/03/25 00:36:04;;;;;;;19.05;15.02;;;;;;;9.36;48.23;100857.69;1086225;54;20094;-82
2022/03/25 00:37:05;;;;;;;21.17;14.98;;;;;;;9.40;48.38;100855.63;1086960;54;20053;-80
2022/03/25 00:38:09;;;;;;;19.23;15.15;;;;;;;9.38;48.57;100840.69;1087884;54;20568;-82
2022/03/25 00:39:14;;;;;;;21.30;15.18;;;;;;;9.39;48.37;100845.91;1087810;54;20027;-82
2022/03/25 00:40:19;;;;;;;21.70;13.98;;;;;;;9.42;48.23;100843.03;1087966;54;20057;-81
2022/03/25 00:41:23;;;;;;;18.30;14.07;;;;;;;9.42;48.30;100848.34;1087869;54;20042;-82
2022/03/25 00:42:29;;;;;;;17.92;13.85;;;;;;;9.41;48.13;100843.97;1087887;54;20057;-82
2022/03/25 00:43:30;;;;;;;18.75;13.63;;;;;;;9.43;48.19;100850.06;1087858;54;20058;-81
2022/03/25 00:44:35;;;;;;;19.13;13.30;;;;;;;9.47;47.92;100842.66;1087936;54;20027;-84
2022/03/25 00:45:39;;;;;;;20.52;14.13;;;;;;;9.43;48.05;100842.06;1087905;54;20062;-84
2022/03/25 00:46:41;;;;;;;20.98;14.85;;;;;;;9.27;48.24;100846.84;1087750;54;20026;-83
2022/03/25 00:47:45;;;;;;;24.75;17.10;;;;;;;9.13;48.85;100842.56;1087727;54;20034;-84
2022/03/25 00:48:46;;;;;;;22.20;16.98;;;;;;;9.01;49.11;100844.34;1087538;54;20034;-81
2022/03/25 00:49:51;;;;;;;25.58;17.58;;;;;;;8.97;49.38;100840.22;1087664;54;20039;-83
2022/03/25 00:50:52;;;;;;;23.30;16.27;;;;;;;8.90;49.63;100843.31;1087792;54;20057;-81
2022/03/25 00:51:56;;;;;;;23.85;17.27;;;;;;;8.94;49.58;100840.44;1087837;54;20035;-81
2022/03/25 00:52:58;;;;;;;21.25;16.58;;;;;;;9.02;49.40;100846.03;1087894;54;20062;-83
2022/03/25 00:54:03;;;;;;;21.23;15.85;;;;;;;9.01;49.31;100844.34;1088294;39;20496;-82
2022/03/25 00:55:11;;;;;;;20.67;15.23;;;;;;;9.02;49.39;100851.38;1088004;54;20037;-84
2022/03/25 00:56:12;;;;;;;21.65;15.95;;;;;;;9.07;48.99;100849.19;1087916;54;20038;-84
2022/03/25 00:57:16;;;;;;;19.30;14.90;;;;;;;9.10;48.83;100840.97;1087748;54;20134;-83
2022/03/25 00:58:18;;;;;;;20.35;14.85;;;;;;;9.13;48.87;100846.09;1087953;54;20034;-85
2022/03/25 00:59:23;;;;;;;20.23;15.55;;;;;;;9.09;48.63;100841.09;1092419;39;20496;-82
2022/03/25 01:00:24;;;;;;;23.00;16.65;;;;;;;9.02;48.74;100844.22;1088341;39;20465;-85
2022/03/25 01:01:28;;;;;;;21.08;15.30;;;;;;;9.07;48.80;100841.19;1087939;54;20647;-85
2022/03/25 01:02:34;;;;;;;19.50;14.88;;;;;;;9.04;48.92;100844.13;1087922;54;20132;-82
2022/03/25 01:03:35;;;;;;;21.85;15.02;;;;;;;9.05;48.76;100840.50;1087950;54;20058;-83
2022/03/25 01:04:40;;;;;;;19.75;15.15;;;;;;;9.08;48.63;100845.56;1088008;54;20026;-85
2022/03/25 01:05:41;;;;;;;17.60;13.75;;;;;;;9.07;48.73;100849.19;1088242;54;20025;-84
2022/03/25 01:06:46;;;;;;;19.17;14.15;;;;;;;9.07;48.79;100845.69;1088315;54;20030;-84
2022/03/25 01:07:47;;;;;;;19.63;14.27;;;;;;;9.06;48.49;100839.53;1088223;54;20045;-84
2022/03/25 01:08:51;;;;;;;21.08;15.68;;;;;;;9.00;48.81;100839.97;1088138;54;20604;-81
2022/03/25 01:09:53;;;;;;;20.20;16.08;;;;;;;8.85;49.09;100842.81;1088130;54;20034;-81
2022/03/25 01:11:00;;;;;;;22.85;17.25;;;;;;;8.81;49.23;100849.34;1088300;54;20582;-81
2022/03/25 01:12:01;;;;;;;23.30;17.33;;;;;;;8.78;49.34;100844.25;1088249;54;20125;-84
2022/03/25 01:13:06;;;;;;;21.40;16.08;;;;;;;8.81;49.16;100843.16;1088247;54;20062;-82
2022/03/25 01:14:10;;;;;;;18.73;14.32;;;;;;;8.83;48.96;100842.09;1088149;54;20051;-82
2022/03/25 01:15:12;;;;;;;19.90;15.07;;;;;;;8.85;48.88;100841.97;1088126;54;20034;-82
2022/03/25 01:16:16;;;;;;;20.55;14.15;;;;;;;8.89;49.04;100843.44;1088244;54;20026;-84
2022/03/25 01:17:17;;;;;;;20.38;14.38;;;;;;;8.86;49.21;100839.19;1088145;54;20026;-84
2022/03/25 01:18:22;;;;;;;22.98;14.65;;;;;;;8.88;48.90;100847.06;1088101;54;20049;-86
2022/03/25 01:19:23;;;;;;;19.40;15.48;;;;;;;8.87;49.11;100845.38;1088145;54;20039;-81
2022/03/25 01:20:27;;;;;;;21.52;14.98;;;;;;;8.85;49.13;100841.97;1087579;54;20038;-83
2022/03/25 01:21:29;;;;;;;21.23;15.85;;;;;;;8.75;49.46;100841.81;1087524;54;20038;-82
2022/03/25 01:22:33;;;;;;;21.60;15.98;;;;;;;8.72;49.84;100844.69;1087407;54;20042;-83
2022/03/25 01:23:35;;;;;;;20.52;15.20;;;;;;;8.70;49.97;100843.94;1087368;54;20042;-81
2022/03/25 01:24:39;;;;;;;19.85;15.23;;;;;;;8.69;50.12;100842.28;1087528;54;20031;-82
2022/03/25 01:25:40;;;;;;;20.60;15.98;;;;;;;8.66;50.25;100851.31;1087320;54;20045;-80
2022/03/25 01:26:47;;;;;;;19.80;15.38;;;;;;;8.58;50.58;100841.25;1087329;54;20122;-80
2022/03/25 01:27:49;;;;;;;22.45;16.58;;;;;;;8.53;50.61;100848.69;1086993;54;20042;-79
2022/03/25 01:28:53;;;;;;;20.40;15.38;;;;;;;8.55;50.38;100843.25;1087080;54;20034;-82
2022/03/25 01:29:54;;;;;;;20.15;14.73;;;;;;;8.55;50.44;100848.59;1086857;54;20027;-80
2022/03/25 01:30:59;;;;;;;21.52;15.52;;;;;;;8.53;50.33;100845.19;1086529;54;20049;-80
2022/03/25 01:32:03;;;;;;;19.30;15.10;;;;;;;8.50;50.21;100842.75;1086974;54;20030;-80
2022/03/25 01:33:05;;;;;;;21.67;15.05;;;;;;;8.49;50.46;100841.91;1086815;54;20042;-82
2022/03/25 01:34:09;;;;;;;19.60;14.70;;;;;;;8.48;50.28;100845.53;1086987;54;20031;-81
2022/03/25 01:35:11;;;;;;;21.40;15.23;;;;;;;8.45;50.11;100845.72;1086942;54;20074;-80
2022/03/25 01:36:15;;;;;;;21.98;16.00;;;;;;;8.41;50.34;100852.22;1087275;39;20709;-81
2022/03/25 01:37:17;;;;;;;23.23;15.80;;;;;;;8.32;50.45;100847.56;1085951;54;20124;-81
2022/03/25 01:38:22;;;;;;;21.83;16.50;;;;;;;8.31;50.46;100852.03;1086548;46;20081;-82
2022/03/25 01:39:23;;;;;;;21.52;15.85;;;;;;;8.28;50.46;100852.25;1086217;54;20049;-81
2022/03/25 01:40:27;;;;;;;22.88;15.70;;;;;;;8.26;50.55;100852.38;1086584;39;20320;-79
2022/03/25 01:41:29;;;;;;;20.70;15.82;;;;;;;8.26;50.30;100851.53;1086377;54;20042;-82
2022/03/25 01:42:39;;;;;;;19.80;15.45;;;;;;;8.22;50.69;100850.88;1086727;46;20049;-81
2022/03/25 01:43:43;;;;;;;22.48;15.95;;;;;;;8.19;50.80;100853.78;1086644;54;20603;-80
2022/03/25 01:44:47;;;;;;;22.15;15.68;;;;;;;8.18;50.87;100856.53;1086599;54;20030;-82
2022/03/25 01:45:48;;;;;;;19.83;14.93;;;;;;;8.18;50.80;100859.19;1086518;54;20038;-82
2022/03/25 01:46:52;;;;;;;20.48;14.50;;;;;;;8.19;50.76;100845.78;1086513;54;20553;-81
2022/03/25 01:47:54;;;;;;;21.92;15.20;;;;;;;8.17;50.50;100842.38;1086179;54;20034;-81
2022/03/25 01:48:58;;;;;;;21.13;15.57;;;;;;;8.15;50.59;100846.97;1086561;54;20040;-81
2022/03/25 01:50:02;;;;;;;19.85;14.57;;;;;;;8.15;50.43;100852.28;1086587;54;20062;-81
2022/03/25 01:51:08;;;;;;;17.27;13.95;;;;;;;8.10;50.70;100844.63;1086731;46;20042;-80
2022/03/25 01:52:10;;;;;;;19.95;14.65;;;;;;;8.09;50.76;100844.75;1086807;54;20169;-82
2022/03/25 01:53:16;;;;;;;18.95;15.13;;;;;;;8.10;50.55;100843.78;1087125;54;20033;-84
2022/03/25 01:54:20;;;;;;;17.55;14.18;;;;;;;8.06;50.62;100837.84;1086995;54;20026;-80
2022/03/25 01:55:27;;;;;;;20.85;14.70;;;;;;;8.10;50.63;100849.13;1087021;54;20062;-83
2022/03/25 01:56:29;;;;;;;20.67;15.07;;;;;;;8.10;50.38;100843.78;1086840;54;20030;-81
2022/03/25 01:57:36;;;;;;;19.75;14.05;;;;;;;8.10;50.47;100841.13;1087440;54;20042;-84
2022/03/25 01:58:40;;;;;;;18.20;13.65;;;;;;;8.10;50.76;100841.13;1087835;54;20023;-82
2022/03/25 01:59:44;;;;;;;18.17;14.20;;;;;;;8.06;50.55;100848.47;1088716;39;20483;-83
2022/03/25 02:00:45;;;;;;;19.70;13.00;;;;;;;8.07;50.62;100841.34;1087741;46;20018;-81
2022/03/25 02:01:50;;;;;;;20.63;14.88;;;;;;;8.05;50.63;100845.91;1088782;46;20026;-81
2022/03/25 02:02:52;;;;;;;19.13;14.70;;;;;;;8.06;50.66;100844.94;1087541;54;20045;-83
2022/03/25 02:03:56;;;;;;;19.30;14.82;;;;;;;8.04;50.71;100857.50;1089941;39;20716;-81
2022/03/25 02:04:59;;;;;;;21.88;14.13;;;;;;;7.99;51.18;100847.19;1090891;31;20553;-83
2022/03/25 02:06:04;;;;;;;18.92;13.93;;;;;;;7.97;51.17;100849.97;1087068;46;20034;-81
2022/03/25 02:07:07;;;;;;;20.20;14.73;;;;;;;7.93;51.48;100850.31;1086781;54;20026;-81
2022/03/25 02:08:12;;;;;;;20.70;14.98;;;;;;;7.89;51.51;100848.78;1086657;54;20034;-79
2022/03/25 02:09:17;;;;;;;19.95;14.73;;;;;;;7.89;51.73;100844.34;1086494;54;20066;-80
2022/03/25 02:10:18;;;;;;;20.45;15.15;;;;;;;7.92;51.72;100849.47;1086825;46;20034;-81
2022/03/25 02:11:23;;;;;;;19.77;13.57;;;;;;;7.96;51.40;100850.94;1087274;39;20493;-81
2022/03/25 02:12:24;;;;;;;20.08;14.13;;;;;;;7.93;51.49;100845.84;1086700;54;20042;-81
2022/03/25 02:13:31;;;;;;;21.65;16.17;;;;;;;7.79;52.17;100844.13;1086741;54;20121;-80
2022/03/25 02:14:32;;;;;;;23.00;16.23;;;;;;;7.71;52.43;100845.63;1086790;54;20042;-81
2022/03/25 02:15:38;;;;;;;25.42;18.23;;;;;;;7.49;53.31;100847.09;1086550;54;20093;-79
2022/03/25 02:16:41;;;;;;;27.35;18.83;;;;;;;7.29;54.09;100857.28;1086370;54;20042;-78
2022/03/25 02:17:46;;;;;;;28.17;20.02;;;;;;;7.11;55.06;100853.22;1086443;54;20041;-82
2022/03/25 02:18:48;;;;;;;27.92;18.88;;;;;;;6.96;55.41;100853.28;1086237;54;20042;-80
2022/03/25 02:19:52;;;;;;;26.67;19.33;;;;;;;6.86;56.18;100846.88;1086167;54;20160;-79
2022/03/25 02:20:56;;;;;;;28.70;20.45;;;;;;;6.75;56.37;100849.38;1087764;39;20448;-80
2022/03/25 02:22:00;;;;;;;29.38;20.40;;;;;;;6.62;57.10;100852.00;1086507;47;20062;-81
2022/03/25 02:23:05;;;;;;;31.27;21.27;;;;;;;6.55;56.76;100854.19;1086731;54;20034;-81
2022/03/25 02:24:08;;;;;;;30.00;20.80;;;;;;;6.49;56.95;100862.56;1086599;54;20042;-82
2022/03/25 02:25:14;;;;;;;30.98;19.92;;;;;;;6.39;57.07;100857.84;1087108;46;20549;-81
2022/03/25 02:26:19;;;;;;;32.03;20.48;;;;;;;6.35;57.06;100856.31;1086920;54;20062;-80
2022/03/25 02:27:23;;;;;;;26.33;20.05;;;;;;;6.31;56.71;100852.16;1086896;54;20865;-84
2022/03/25 02:28:27;;;;;;;28.05;20.40;;;;;;;6.32;56.36;100856.53;1086714;54;20038;-82
2022/03/25 02:29:29;;;;;;;29.35;20.40;;;;;;;6.26;56.76;100856.91;1086684;39;20452;-80
2022/03/25 02:30:34;;;;;;;34.15;21.42;;;;;;;6.28;56.35;100860.31;1086516;39;20512;-80
2022/03/25 02:31:36;;;;;;;26.10;19.90;;;;;;;6.23;56.60;100859.75;1086206;54;20553;-79
2022/03/25 02:32:41;;;;;;;29.45;21.80;;;;;;;6.21;56.51;100854.53;1087675;31;20609;-78
2022/03/25 02:33:43;;;;;;;33.10;21.52;;;;;;;6.17;56.37;100857.47;1086276;54;20069;-80
2022/03/25 02:34:47;;;;;;;27.58;20.65;;;;;;;6.12;56.64;100844.50;1086379;54;20568;-80
2022/03/25 02:35:53;;;;;;;26.88;20.48;;;;;;;6.01;57.03;100860.22;1086142;54;20042;-81
2022/03/25 02:36:55;;;;;;;26.75;20.50;;;;;;;5.90;57.42;100864.38;1085589;54;20061;-81
2022/03/25 02:38:02;;;;;;;30.27;20.52;;;;;;;5.83;57.46;100854.25;1086890;54;20676;-82
2022/03/25 02:39:06;;;;;;;32.40;21.67;;;;;;;5.84;57.81;100851.47;1087652;46;20632;-81
2022/03/25 02:40:11;;;;;;;28.60;20.90;;;;;;;5.86;57.68;100859.34;1087639;46;20537;-81
2022/03/25 02:41:15;;;;;;;32.78;21.50;;;;;;;5.83;57.41;100852.44;1087471;54;20043;-80
2022/03/25 02:42:17;;;;;;;28.25;21.38;;;;;;;5.77;57.73;100853.66;1087382;54;20038;-81
2022/03/25 02:43:21;;;;;;;29.38;21.58;;;;;;;5.76;57.70;100854.59;1086964;54;20631;-81
2022/03/25 02:44:24;;;;;;;30.52;21.20;;;;;;;5.74;57.77;100856.53;1087141;54;20037;-81
2022/03/25 02:45:28;;;;;;;32.42;22.33;;;;;;;5.69;57.93;100858.59;1089210;39;20414;-80
2022/03/25 02:46:32;;;;;;;29.05;20.35;;;;;;;5.69;57.85;100860.41;1087736;54;20026;-80
2022/03/25 02:47:34;;;;;;;32.55;21.00;;;;;;;5.68;58.18;100862.19;1086837;54;20031;-80
2022/03/25 02:48:39;;;;;;;29.02;20.98;;;;;;;5.70;57.84;100860.28;1086779;54;20034;-79
2022/03/25 02:49:41;;;;;;;30.00;21.45;;;;;;;5.70;58.00;100854.97;1086894;54;20615;-80
2022/03/25 02:50:46;;;;;;;29.58;20.77;;;;;;;5.72;57.86;100857.53;1086781;54;20038;-79
2022/03/25 02:51:47;;;;;;;32.42;22.67;;;;;;;5.64;58.16;100860.69;1086838;54;20039;-80
2022/03/25 02:52:52;;;;;;;31.10;22.10;;;;;;;5.69;58.14;100863.03;1086628;54;20066;-79
2022/03/25 02:53:57;;;;;;;31.63;22.67;;;;;;;5.69;58.18;100860.41;1086594;54;20038;-81
2022/03/25 02:55:01;;;;;;;30.30;21.33;;;;;;;5.72;58.10;100866.38;1086505;54;20050;-79
2022/03/25 02:56:06;;;;;;;30.70;21.95;;;;;;;5.74;57.83;100861.81;1085923;54;20042;-79
2022/03/25 02:57:08;;;;;;;31.02;22.08;;;;;;;5.78;57.74;100868.63;1087690;54;20026;-80
2022/03/25 02:58:12;;;;;;;29.15;20.30;;;;;;;5.87;57.35;100869.00;1087238;54;20070;-82
2022/03/25 02:59:14;;;;;;;28.13;20.33;;;;;;;5.89;57.27;100865.34;1087791;54;20034;-82
2022/03/25 03:00:19;;;;;;;27.60;20.48;;;;;;;5.83;57.45;100873.66;1087598;54;20541;-80
2022/03/25 03:01:21;;;;;;;30.52;21.02;;;;;;;5.80;57.47;100871.22;1088041;39;20391;-79
2022/03/25 03:02:25;;;;;;;29.83;21.33;;;;;;;5.69;57.81;100868.34;1087282;54;20065;-82
2022/03/25 03:03:26;;;;;;;32.45;21.92;;;;;;;5.69;57.92;100871.00;1087672;54;20019;-81
2022/03/25 03:04:30;;;;;;;29.50;21.50;;;;;;;5.71;58.03;100875.25;1087563;54;20034;-81
2022/03/25 03:05:33;;;;;;;31.52;20.88;;;;;;;5.73;57.77;100870.72;1088511;46;20057;-80
2022/03/25 03:06:37;;;;;;;29.40;21.13;;;;;;;5.72;58.22;100868.16;1087569;54;20074;-82
2022/03/25 03:07:38;;;;;;;28.17;20.25;;;;;;;5.71;57.93;100869.13;1088924;46;20041;-81
2022/03/25 03:08:45;;;;;;;29.85;21.27;;;;;;;5.63;58.63;100869.56;1087810;54;20098;-83
2022/03/25 03:09:49;;;;;;;32.38;21.70;;;;;;;5.63;58.55;100862.47;1087854;54;20041;-81
2022/03/25 03:10:53;;;;;;;29.50;21.42;;;;;;;5.70;58.20;100870.06;1087741;54;20026;-80
2022/03/25 03:11:54;;;;;;;27.42;20.33;;;;;;;5.68;58.26;100871.94;1087637;54;20034;-81
2022/03/25 03:12:59;;;;;;;27.13;19.55;;;;;;;5.67;58.26;100870.25;1087671;54;20034;-83
2022/03/25 03:14:00;;;;;;;27.75;19.65;;;;;;;5.66;58.32;100866.75;1088814;46;20560;-79
2022/03/25 03:15:06;;;;;;;27.25;19.98;;;;;;;5.69;58.33;100869.19;1087269;54;20049;-80
2022/03/25 03:16:09;;;;;;;28.13;20.35;;;;;;;5.73;58.06;100875.16;1086829;54;20046;-81
2022/03/25 03:17:13;;;;;;;24.80;18.40;;;;;;;5.88;57.81;100870.72;1087986;46;20041;-80
2022/03/25 03:18:19;;;;;;;27.40;18.30;;;;;;;5.78;57.64;100879.25;1087283;54;20090;-80
2022/03/25 03:19:21;;;;;;;25.63;18.52;;;;;;;5.88;57.67;100874.25;1087596;54;20026;-81
2022/03/25 03:20:26;;;;;;;23.63;18.50;;;;;;;6.01;57.43;100868.19;1088037;54;20162;-81
2022/03/25 03:21:29;;;;;;;25.58;19.17;;;;;;;6.02;57.36;100870.78;1086549;54;20034;-78
2022/03/25 03:22:33;;;;;;;23.83;16.50;;;;;;;6.13;56.78;100869.25;1086794;47;20139;-82
2022/03/25 03:23:35;;;;;;;25.73;17.52;;;;;;;6.21;56.58;100866.97;1086490;54;20022;-79
2022/03/25 03:24:39;;;;;;;27.00;18.45;;;;;;;6.04;57.16;100873.31;1087041;54;20031;-80
2022/03/25 03:25:46;;;;;;;25.98;19.35;;;;;;;5.89;57.82;100869.78;1088604;46;20038;-79
2022/03/25 03:26:47;;;;;;;26.38;18.20;;;;;;;5.89;57.59;100875.97;1086855;54;20038;-78
2022/03/25 03:27:52;;;;;;;28.17;18.65;;;;;;;5.93;57.34;100871.31;1086838;54;20100;-79
2022/03/25 03:28:53;;;;;;;27.42;17.88;;;;;;;6.01;57.35;100868.19;1086527;54;20026;-81
2022/03/25 03:29:58;;;;;;;26.25;17.80;;;;;;;6.11;56.84;100864.03;1086744;54;20046;-79
2022/03/25 03:30:59;;;;;;;25.55;17.13;;;;;;;6.10;56.73;100867.63;1087845;39;20437;-79
2022/03/25 03:38:02;;;;;;;27.55;19.52;;;;;;;5.75;59.02;100863.53;1088281;54;20022;-81
2022/03/25 03:39:04;;;;;;;25.17;18.98;;;;;;;5.69;58.92;100858.59;1087869;54;20035;-80
2022/03/25 03:40:10;;;;;;;26.42;17.60;;;;;;;5.74;59.04;100867.13;1088312;54;20034;-79
2022/03/25 03:41:14;;;;;;;23.80;17.88;;;;;;;5.78;58.96;100867.78;1088375;54;20042;-81
2022/03/25 03:42:20;;;;;;;30.45;19.45;;;;;;;5.77;58.87;100869.56;1088333;54;20042;-80
2022/03/25 03:43:22;;;;;;;27.30;17.63;;;;;;;5.76;58.96;100865.22;1088421;54;20030;-79
2022/03/25 03:44:27;;;;;;;25.40;18.27;;;;;;;5.74;59.00;100867.13;1088190;54;20042;-80
2022/03/25 03:45:32;;;;;;;27.50;20.10;;;;;;;5.61;59.64;100860.84;1088083;54;20046;-80
2022/03/25 03:46:34;;;;;;;26.45;19.45;;;;;;;5.56;59.71;100861.13;1088186;54;20044;-79
2022/03/25 03:47:39;;;;;;;25.02;18.85;;;;;;;5.50;59.92;100864.16;1096645;39;20574;-81
2022/03/25 03:48:41;;;;;;;25.83;19.75;;;;;;;5.50;60.03;100863.28;1088368;54;20049;-80
2022/03/25 03:49:51;;;;;;;28.20;19.80;;;;;;;5.42;60.88;100861.13;1088830;39;20601;-80
2022/03/25 03:50:53;;;;;;;29.80;19.70;;;;;;;5.44;60.35;100862.72;1088442;54;20058;-80
2022/03/25 03:51:57;;;;;;;29.30;19.90;;;;;;;5.45;60.46;100866.22;1088461;54;20018;-81
2022/03/25 03:52:58;;;;;;;30.83;19.95;;;;;;;5.52;60.39;100862.28;1088398;54;20042;-80
2022/03/25 03:54:05;;;;;;;26.95;18.83;;;;;;;5.58;60.08;100861.03;1088321;54;20041;-81
2022/03/25 03:55:08;;;;;;;26.23;19.15;;;;;;;5.58;60.19;100861.91;1088378;54;20057;-80
2022/03/25 03:56:12;;;;;;;25.65;18.33;;;;;;;5.54;60.15;100865.66;1088339;54;20023;-80
2022/03/25 03:57:16;;;;;;;26.35;18.40;;;;;;;5.53;60.74;100865.78;1088381;54;20038;-81
2022/03/25 03:58:22;;;;;;;25.80;18.70;;;;;;;5.50;60.73;100864.16;1088413;54;20038;-81
2022/03/25 03:59:24;;;;;;;28.02;19.90;;;;;;;5.38;61.22;100863.09;1088350;54;20015;-80
2022/03/25 04:00:30;;;;;;;28.95;20.17;;;;;;;5.43;61.02;100866.31;1093489;39;20617;-82
2022/03/25 04:01:33;;;;;;;29.65;19.95;;;;;;;5.44;60.88;100875.13;1088370;54;20042;-80
2022/03/25 04:02:37;;;;;;;30.98;19.15;;;;;;;5.45;61.14;100871.53;1088338;54;20035;-81
2022/03/25 04:03:39;;;;;;;28.55;19.63;;;;;;;5.41;60.91;100865.56;1088305;54;20045;-79
2022/03/25 04:04:43;;;;;;;26.33;19.33;;;;;;;5.49;60.80;100872.19;1088346;54;20014;-81
2022/03/25 04:05:45;;;;;;;25.70;19.33;;;;;;;5.55;60.66;100871.84;1088418;54;20034;-81
2022/03/25 04:06:49;;;;;;;25.83;18.65;;;;;;;5.56;60.33;100865.59;1088403;54;20027;-80
2022/03/25 04:07:51;;;;;;;26.05;18.67;;;;;;;5.63;60.31;100874.88;1092301;39;20690;-79
2022/03/25 04:08:56;;;;;;;27.90;18.17;;;;;;;5.71;60.23;100869.13;1088302;54;20019;-80
2022/03/25 04:10:00;;;;;;;27.10;19.45;;;;;;;5.73;59.91;100876.03;1088369;54;20038;-82
2022/03/25 04:11:04;;;;;;;27.42;18.85;;;;;;;5.78;59.79;100873.94;1088384;54;20031;-79
2022/03/25 04:12:08;;;;;;;26.00;18.38;;;;;;;5.80;59.68;100875.66;1090791;39;20495;-80
2022/03/25 04:13:15;;;;;;;25.10;16.80;;;;;;;5.83;59.77;100864.84;1088374;54;20019;-79
2022/03/25 04:14:17;;;;;;;21.25;16.33;;;;;;;5.91;59.41;100871.38;1088317;54;20021;-80
2022/03/25 04:15:21;;;;;;;23.42;16.85;;;;;;;5.97;59.21;100874.63;1088303;54;20038;-80
2022/03/25 04:16:23;;;;;;;22.05;16.58;;;;;;;5.97;59.02;100867.50;1088340;54;20037;-80
2022/03/25 04:17:27;;;;;;;21.15;15.90;;;;;;;5.95;58.96;100869.41;1089874;39;20895;-80
2022/03/25 04:18:29;;;;;;;24.92;17.20;;;;;;;5.91;59.14;100867.88;1088347;54;20031;-80
2022/03/25 04:19:34;;;;;;;24.55;18.02;;;;;;;5.89;59.38;100872.44;1088425;54;20026;-81
2022/03/25 04:20:35;;;;;;;25.15;16.63;;;;;;;5.89;59.39;100864.47;1093034;39;20476;-79
2022/03/25 04:21:40;;;;;;;24.10;17.40;;;;;;;5.87;59.50;100869.88;1088308;54;20045;-79
2022/03/25 04:22:42;;;;;;;23.00;16.83;;;;;;;5.90;59.48;100872.31;1088418;54;20031;-81
2022/03/25 04:23:46;;;;;;;25.48;17.40;;;;;;;5.84;59.61;100871.88;1088364;54;20041;-81
2022/03/25 04:24:47;;;;;;;22.75;17.60;;;;;;;5.80;59.76;100865.91;1088358;54;20050;-79
2022/03/25 04:25:52;;;;;;;24.15;17.25;;;;;;;5.76;59.70;100883.78;1088376;54;20019;-80
2022/03/25 04:26:53;;;;;;;25.45;17.38;;;;;;;5.78;59.61;100878.41;1088375;54;20041;-80
2022/03/25 04:27:59;;;;;;;25.98;18.10;;;;;;;5.84;59.59;100882.50;1088351;54;20011;-80
2022/03/25 04:29:03;;;;;;;24.85;18.55;;;;;;;5.74;59.68;100872.44;1088265;54;20034;-80
2022/03/25 04:30:08;;;;;;;25.98;18.25;;;;;;;5.74;59.65;100876.88;1090328;39;20515;-79
2022/03/25 04:31:10;;;;;;;22.80;17.38;;;;;;;5.69;59.63;100874.50;1088327;54;20034;-79
2022/03/25 04:32:14;;;;;;;24.02;18.63;;;;;;;5.57;59.80;100872.59;1088335;54;20033;-80
2022/03/25 04:33:18;;;;;;;28.27;20.17;;;;;;;5.44;60.38;100869.81;1088408;54;20031;-78
2022/03/25 04:34:20;;;;;;;27.73;19.92;;;;;;;5.32;60.69;100876.69;1088358;54;20053;-80
2022/03/25 04:35:25;;;;;;;27.08;20.42;;;;;;;5.27;60.83;100876.97;1088376;54;20054;-81
2022/03/25 04:36:29;;;;;;;27.63;20.30;;;;;;;5.20;61.36;100872.09;1088391;54;20018;-80
2022/03/25 04:37:31;;;;;;;27.75;19.02;;;;;;;5.18;61.31;100879.31;1088357;54;20022;-79
2022/03/25 04:38:35;;;;;;;26.17;19.38;;;;;;;5.16;61.29;100879.41;1087918;54;20834;-81
2022/03/25 04:39:37;;;;;;;28.45;20.23;;;;;;;5.14;61.42;100879.50;1088262;54;20053;-82
2022/03/25 04:40:42;;;;;;;27.65;18.98;;;;;;;5.11;61.62;100879.66;1088407;54;20014;-80
2022/03/25 04:41:44;;;;;;;29.48;19.85;;;;;;;5.05;61.97;100880.03;1088896;47;20041;-80
2022/03/25 04:42:48;;;;;;;26.90;20.15;;;;;;;5.01;62.18;100873.19;1094319;46;20087;-80
2022/03/25 04:43:51;;;;;;;26.70;19.23;;;;;;;4.98;62.32;100874.22;1088302;54;20014;-80
2022/03/25 04:44:58;;;;;;;29.40;20.67;;;;;;;4.89;62.96;100871.25;1095039;39;20535;-82
2022/03/25 04:46:02;;;;;;;27.85;19.60;;;;;;;4.87;62.87;100870.50;1088369;54;20030;-80
2022/03/25 04:47:04;;;;;;;32.20;21.33;;;;;;;4.79;63.30;100869.13;1088753;47;20025;-80
2022/03/25 04:48:10;;;;;;;31.05;20.40;;;;;;;4.76;63.56;100869.31;1088304;54;20041;-81
2022/03/25 04:49:12;;;;;;;30.27;20.48;;;;;;;4.72;63.60;100872.22;1088255;54;20800;-80
2022/03/25 04:50:16;;;;;;;26.75;20.42;;;;;;;4.72;63.49;100872.22;1088354;54;20011;-80
2022/03/25 04:51:18;;;;;;;28.88;19.70;;;;;;;4.77;63.29;100873.66;1088265;54;20038;-80
2022/03/25 04:52:22;;;;;;;27.95;20.13;;;;;;;4.78;63.06;100863.91;1088317;54;20028;-80
2022/03/25 04:53:28;;;;;;;27.42;20.45;;;;;;;4.80;63.03;100869.97;1088353;54;20018;-81
2022/03/25 04:54:29;;;;;;;26.75;19.25;;;;;;;4.80;62.51;100862.91;1088325;54;20086;-80
2022/03/25 04:55:34;;;;;;;28.58;20.38;;;;;;;4.77;62.63;100865.72;1095503;39;20562;-81
2022/03/25 04:56:36;;;;;;;26.55;19.75;;;;;;;4.74;62.63;100868.53;1088355;54;20022;-80
2022/03/25 04:57:40;;;;;;;29.05;20.60;;;;;;;4.73;62.39;100868.63;1088342;54;20011;-81